sensor_id;sensor_type;location;lat;lon;timestamp;temperature;humidity
26099;DHT22;13860;52.370;6.764;2023-11-21T00:02:49;9.30;91.00
26099;DHT22;13860;52.370;6.764;2023-11-21T00:05:54;9.30;91.10
26099;DHT22;13860;52.370;6.764;2023-11-21T00:09:02;9.30;91.10
26099;DHT22;13860;52.370;6.764;2023-11-21T00:12:10;9.30;91.10
26099;DHT22;13860;52.370;6.764;2023-11-21T00:15:18;9.40;91.10
26099;DHT22;13860;52.370;6.764;2023-11-21T00:18:24;9.30;91.10
26099;DHT22;13860;52.370;6.764;2023-11-21T00:21:31;9.30;91.10
26099;DHT22;13860;52.370;6.764;2023-11-21T00:24:36;9.40;91.10
26099;DHT22;13860;52.370;6.764;2023-11-21T00:27:46;9.40;91.10
26099;DHT22;13860;52.370;6.764;2023-11-21T00:30:52;9.40;91.10
26099;DHT22;13860;52.370;6.764;2023-11-21T00:33:59;9.40;91.10
26099;DHT22;13860;52.370;6.764;2023-11-21T00:37:04;9.40;91.10
26099;DHT22;13860;52.370;6.764;2023-11-21T00:40:12;9.40;91.10
26099;DHT22;13860;52.370;6.764;2023-11-21T00:43:21;9.40;91.10
26099;DHT22;13860;52.370;6.764;2023-11-21T00:46:29;9.40;91.10
26099;DHT22;13860;52.370;6.764;2023-11-21T00:49:34;9.40;91.10
26099;DHT22;13860;52.370;6.764;2023-11-21T00:52:43;9.40;91.10
26099;DHT22;13860;52.370;6.764;2023-11-21T00:55:49;9.40;91.10
26099;DHT22;13860;52.370;6.764;2023-11-21T00:58:59;9.30;91.20
26099;DHT22;13860;52.370;6.764;2023-11-21T01:02:05;9.40;91.10
26099;DHT22;13860;52.370;6.764;2023-11-21T01:05:15;9.30;91.20
26099;DHT22;13860;52.370;6.764;2023-11-21T01:08:21;9.40;91.20
26099;DHT22;13860;52.370;6.764;2023-11-21T01:11:28;9.40;91.20
26099;DHT22;13860;52.370;6.764;2023-11-21T01:14:38;9.30;91.10
26099;DHT22;13860;52.370;6.764;2023-11-21T01:17:45;9.30;91.20
26099;DHT22;13860;52.370;6.764;2023-11-21T01:20:51;9.30;91.20
26099;DHT22;13860;52.370;6.764;2023-11-21T01:23:58;9.30;91.40
26099;DHT22;13860;52.370;6.764;2023-11-21T01:27:05;9.40;91.40
26099;DHT22;13860;52.370;6.764;2023-11-21T01:30:16;9.30;91.70
26099;DHT22;13860;52.370;6.764;2023-11-21T01:33:21;9.30;91.50
26099;DHT22;13860;52.370;6.764;2023-11-21T01:36:30;9.40;91.90
26099;DHT22;13860;52.370;6.764;2023-11-21T01:39:37;9.30;92.30
26099;DHT22;13860;52.370;6.764;2023-11-21T01:42:45;9.30;92.00
26099;DHT22;13860;52.370;6.764;2023-11-21T01:45:54;9.30;91.20
26099;DHT22;13860;52.370;6.764;2023-11-21T01:49:02;9.30;91.30
26099;DHT22;13860;52.370;6.764;2023-11-21T01:52:08;9.40;92.30
26099;DHT22;13860;52.370;6.764;2023-11-21T01:55:17;9.40;92.30
26099;DHT22;13860;52.370;6.764;2023-11-21T01:58:31;9.30;91.10
26099;DHT22;13860;52.370;6.764;2023-11-21T02:01:42;9.30;91.10
26099;DHT22;13860;52.370;6.764;2023-11-21T02:04:49;9.30;91.10
26099;DHT22;13860;52.370;6.764;2023-11-21T02:07:56;9.30;91.10
26099;DHT22;13860;52.370;6.764;2023-11-21T02:11:03;9.30;91.10
26099;DHT22;13860;52.370;6.764;2023-11-21T02:14:11;9.30;91.10
26099;DHT22;13860;52.370;6.764;2023-11-21T02:17:19;9.30;91.20
26099;DHT22;13860;52.370;6.764;2023-11-21T02:20:27;9.30;91.20
26099;DHT22;13860;52.370;6.764;2023-11-21T02:23:36;9.40;91.20
26099;DHT22;13860;52.370;6.764;2023-11-21T02:26:46;9.30;91.10
26099;DHT22;13860;52.370;6.764;2023-11-21T02:29:54;9.30;91.20
26099;DHT22;13860;52.370;6.764;2023-11-21T02:33:01;9.40;91.30
26099;DHT22;13860;52.370;6.764;2023-11-21T02:36:09;9.40;91.40
26099;DHT22;13860;52.370;6.764;2023-11-21T02:39:19;9.30;91.50
26099;DHT22;13860;52.370;6.764;2023-11-21T02:42:25;9.50;92.80
26099;DHT22;13860;52.370;6.764;2023-11-21T02:45:32;9.40;91.70
26099;DHT22;13860;52.370;6.764;2023-11-21T02:48:39;9.50;91.60
26099;DHT22;13860;52.370;6.764;2023-11-21T02:51:46;9.50;91.70
26099;DHT22;13860;52.370;6.764;2023-11-21T02:54:54;9.50;91.80
26099;DHT22;13860;52.370;6.764;2023-11-21T02:58:02;9.50;92.10
26099;DHT22;13860;52.370;6.764;2023-11-21T03:01:09;9.50;92.10
26099;DHT22;13860;52.370;6.764;2023-11-21T03:04:17;9.50;92.40
26099;DHT22;13860;52.370;6.764;2023-11-21T03:07:23;9.50;92.60
26099;DHT22;13860;52.370;6.764;2023-11-21T03:10:33;9.50;92.40
26099;DHT22;13860;52.370;6.764;2023-11-21T03:13:38;9.60;92.80
26099;DHT22;13860;52.370;6.764;2023-11-21T03:16:47;9.50;91.50
26099;DHT22;13860;52.370;6.764;2023-11-21T03:19:52;9.50;91.60
26099;DHT22;13860;52.370;6.764;2023-11-21T03:23:01;9.50;91.80
26099;DHT22;13860;52.370;6.764;2023-11-21T03:26:11;9.50;91.70
26099;DHT22;13860;52.370;6.764;2023-11-21T03:29:19;9.50;91.90
26099;DHT22;13860;52.370;6.764;2023-11-21T03:32:25;9.50;91.90
26099;DHT22;13860;52.370;6.764;2023-11-21T03:35:32;9.50;91.90
26099;DHT22;13860;52.370;6.764;2023-11-21T03:38:38;9.60;92.60
26099;DHT22;13860;52.370;6.764;2023-11-21T03:41:48;9.60;94.90
26099;DHT22;13860;52.370;6.764;2023-11-21T03:44:54;10.30;92.70
26099;DHT22;13860;52.370;6.764;2023-11-21T03:48:01;9.80;93.50
26099;DHT22;13860;52.370;6.764;2023-11-21T03:51:07;9.50;91.30
26099;DHT22;13860;52.370;6.764;2023-11-21T03:54:15;9.50;91.30
26099;DHT22;13860;52.370;6.764;2023-11-21T03:57:23;9.50;91.20
26099;DHT22;13860;52.370;6.764;2023-11-21T04:00:32;9.50;91.30
26099;DHT22;13860;52.370;6.764;2023-11-21T04:03:37;9.50;91.30
26099;DHT22;13860;52.370;6.764;2023-11-21T04:06:45;9.60;91.30
26099;DHT22;13860;52.370;6.764;2023-11-21T04:09:50;9.60;91.30
26099;DHT22;13860;52.370;6.764;2023-11-21T04:13:00;9.60;91.30
26099;DHT22;13860;52.370;6.764;2023-11-21T04:16:06;9.60;91.30
26099;DHT22;13860;52.370;6.764;2023-11-21T04:19:14;9.60;91.30
26099;DHT22;13860;52.370;6.764;2023-11-21T04:22:19;9.50;91.30
26099;DHT22;13860;52.370;6.764;2023-11-21T04:25:27;9.60;91.30
26099;DHT22;13860;52.370;6.764;2023-11-21T04:28:35;9.60;91.30
26099;DHT22;13860;52.370;6.764;2023-11-21T04:31:42;9.60;91.30
26099;DHT22;13860;52.370;6.764;2023-11-21T04:34:48;9.60;91.30
26099;DHT22;13860;52.370;6.764;2023-11-21T04:37:56;9.60;91.30
26099;DHT22;13860;52.370;6.764;2023-11-21T04:41:01;9.60;91.30
26099;DHT22;13860;52.370;6.764;2023-11-21T04:44:12;9.60;91.30
26099;DHT22;13860;52.370;6.764;2023-11-21T04:47:18;9.60;91.30
26099;DHT22;13860;52.370;6.764;2023-11-21T04:50:26;9.60;91.30
26099;DHT22;13860;52.370;6.764;2023-11-21T04:53:31;9.60;91.30
26099;DHT22;13860;52.370;6.764;2023-11-21T04:56:39;9.60;91.30
26099;DHT22;13860;52.370;6.764;2023-11-21T04:59:47;9.60;91.30
26099;DHT22;13860;52.370;6.764;2023-11-21T05:02:54;9.60;91.30
26099;DHT22;13860;52.370;6.764;2023-11-21T05:06:00;9.60;91.40
26099;DHT22;13860;52.370;6.764;2023-11-21T05:09:09;9.60;91.30
26099;DHT22;13860;52.370;6.764;2023-11-21T05:12:15;9.60;91.40
26099;DHT22;13860;52.370;6.764;2023-11-21T05:15:25;9.60;91.40
26099;DHT22;13860;52.370;6.764;2023-11-21T05:18:30;9.60;91.40
26099;DHT22;13860;52.370;6.764;2023-11-21T05:21:38;9.60;91.40
26099;DHT22;13860;52.370;6.764;2023-11-21T05:24:44;9.60;91.40
26099;DHT22;13860;52.370;6.764;2023-11-21T05:27:51;9.60;91.40
26099;DHT22;13860;52.370;6.764;2023-11-21T05:30:59;9.60;91.50
26099;DHT22;13860;52.370;6.764;2023-11-21T05:34:19;9.60;91.40
26099;DHT22;13860;52.370;6.764;2023-11-21T05:37:26;9.60;91.50
26099;DHT22;13860;52.370;6.764;2023-11-21T05:40:34;9.60;91.50
26099;DHT22;13860;52.370;6.764;2023-11-21T05:43:40;9.60;91.50
26099;DHT22;13860;52.370;6.764;2023-11-21T05:46:50;9.60;91.60
26099;DHT22;13860;52.370;6.764;2023-11-21T05:49:55;9.70;91.60
26099;DHT22;13860;52.370;6.764;2023-11-21T05:53:02;9.60;91.50
26099;DHT22;13860;52.370;6.764;2023-11-21T05:56:08;9.70;91.60
26099;DHT22;13860;52.370;6.764;2023-11-21T05:59:16;9.70;91.70
26099;DHT22;13860;52.370;6.764;2023-11-21T06:02:27;9.80;91.80
26099;DHT22;13860;52.370;6.764;2023-11-21T06:05:35;9.90;92.10
26099;DHT22;13860;52.370;6.764;2023-11-21T06:08:41;9.70;92.20
26099;DHT22;13860;52.370;6.764;2023-11-21T06:11:48;9.70;92.40
26099;DHT22;13860;52.370;6.764;2023-11-21T06:14:54;9.70;92.60
26099;DHT22;13860;52.370;6.764;2023-11-21T06:18:04;9.80;92.60
26099;DHT22;13860;52.370;6.764;2023-11-21T06:21:16;9.80;93.20
26099;DHT22;13860;52.370;6.764;2023-11-21T06:24:24;9.80;94.30
26099;DHT22;13860;52.370;6.764;2023-11-21T06:27:31;9.30;91.70
26099;DHT22;13860;52.370;6.764;2023-11-21T06:30:38;9.70;91.40
26099;DHT22;13860;52.370;6.764;2023-11-21T06:33:47;9.60;91.30
26099;DHT22;13860;52.370;6.764;2023-11-21T06:36:56;9.10;91.60
26099;DHT22;13860;52.370;6.764;2023-11-21T06:40:02;9.60;91.40
26099;DHT22;13860;52.370;6.764;2023-11-21T06:43:10;9.60;91.70
26099;DHT22;13860;52.370;6.764;2023-11-21T06:46:16;9.70;93.00
26099;DHT22;13860;52.370;6.764;2023-11-21T06:49:27;9.60;91.30
26099;DHT22;13860;52.370;6.764;2023-11-21T06:52:33;9.60;91.30
26099;DHT22;13860;52.370;6.764;2023-11-21T06:55:41;9.60;91.30
26099;DHT22;13860;52.370;6.764;2023-11-21T06:58:47;9.60;91.30
26099;DHT22;13860;52.370;6.764;2023-11-21T07:01:54;9.70;91.40
26099;DHT22;13860;52.370;6.764;2023-11-21T07:05:03;9.70;91.40
26099;DHT22;13860;52.370;6.764;2023-11-21T07:08:11;9.70;91.40
26099;DHT22;13860;52.370;6.764;2023-11-21T07:11:16;9.70;91.40
26099;DHT22;13860;52.370;6.764;2023-11-21T07:14:24;9.70;91.40
26099;DHT22;13860;52.370;6.764;2023-11-21T07:17:29;9.70;91.40
26099;DHT22;13860;52.370;6.764;2023-11-21T07:20:40;9.70;91.30
26099;DHT22;13860;52.370;6.764;2023-11-21T07:23:45;9.70;91.40
26099;DHT22;13860;52.370;6.764;2023-11-21T07:26:52;9.70;91.40
26099;DHT22;13860;52.370;6.764;2023-11-21T07:29:59;9.70;91.40
26099;DHT22;13860;52.370;6.764;2023-11-21T07:33:08;9.70;91.40
26099;DHT22;13860;52.370;6.764;2023-11-21T07:36:17;9.70;91.40
26099;DHT22;13860;52.370;6.764;2023-11-21T07:39:25;9.70;91.50
26099;DHT22;13860;52.370;6.764;2023-11-21T07:42:30;9.70;91.40
26099;DHT22;13860;52.370;6.764;2023-11-21T07:45:38;9.70;91.40
26099;DHT22;13860;52.370;6.764;2023-11-21T07:48:48;9.70;91.40
26099;DHT22;13860;52.370;6.764;2023-11-21T07:51:59;9.70;91.40
26099;DHT22;13860;52.370;6.764;2023-11-21T07:55:05;9.70;91.40
26099;DHT22;13860;52.370;6.764;2023-11-21T07:58:13;9.70;91.60
26099;DHT22;13860;52.370;6.764;2023-11-21T08:01:18;9.70;91.40
26099;DHT22;13860;52.370;6.764;2023-11-21T08:04:25;9.70;91.40
26099;DHT22;13860;52.370;6.764;2023-11-21T08:07:38;9.70;91.70
26099;DHT22;13860;52.370;6.764;2023-11-21T08:10:45;9.80;91.40
26099;DHT22;13860;52.370;6.764;2023-11-21T08:13:58;9.80;91.40
26099;DHT22;13860;52.370;6.764;2023-11-21T08:17:06;9.80;91.40
26099;DHT22;13860;52.370;6.764;2023-11-21T08:20:13;9.80;91.40
26099;DHT22;13860;52.370;6.764;2023-11-21T08:23:23;9.80;91.50
26099;DHT22;13860;52.370;6.764;2023-11-21T08:26:29;9.80;91.40
26099;DHT22;13860;52.370;6.764;2023-11-21T08:29:36;9.80;91.40
26099;DHT22;13860;52.370;6.764;2023-11-21T08:32:42;9.80;91.40
26099;DHT22;13860;52.370;6.764;2023-11-21T08:35:49;9.80;91.40
26099;DHT22;13860;52.370;6.764;2023-11-21T08:38:58;9.90;91.40
26099;DHT22;13860;52.370;6.764;2023-11-21T08:42:06;9.90;91.50
26099;DHT22;13860;52.370;6.764;2023-11-21T08:45:12;9.90;91.40
26099;DHT22;13860;52.370;6.764;2023-11-21T08:48:21;9.90;91.60
26099;DHT22;13860;52.370;6.764;2023-11-21T08:51:27;9.90;91.50
26099;DHT22;13860;52.370;6.764;2023-11-21T08:54:37;9.90;91.40
26099;DHT22;13860;52.370;6.764;2023-11-21T08:57:44;9.90;91.50
26099;DHT22;13860;52.370;6.764;2023-11-21T09:00:52;10.00;91.50
26099;DHT22;13860;52.370;6.764;2023-11-21T09:03:58;10.00;91.50
26099;DHT22;13860;52.370;6.764;2023-11-21T09:07:07;9.90;91.50
26099;DHT22;13860;52.370;6.764;2023-11-21T09:10:15;10.00;91.60
26099;DHT22;13860;52.370;6.764;2023-11-21T09:13:23;10.00;91.60
26099;DHT22;13860;52.370;6.764;2023-11-21T09:16:30;10.00;91.60
26099;DHT22;13860;52.370;6.764;2023-11-21T09:19:37;10.10;91.70
26099;DHT22;13860;52.370;6.764;2023-11-21T09:22:43;10.10;91.70
26099;DHT22;13860;52.370;6.764;2023-11-21T09:25:54;10.10;91.70
26099;DHT22;13860;52.370;6.764;2023-11-21T09:29:02;10.20;92.00
26099;DHT22;13860;52.370;6.764;2023-11-21T09:32:10;10.20;91.60
26099;DHT22;13860;52.370;6.764;2023-11-21T09:35:16;10.20;91.60
26099;DHT22;13860;52.370;6.764;2023-11-21T09:38:24;10.20;91.50
26099;DHT22;13860;52.370;6.764;2023-11-21T09:41:37;10.20;91.60
26099;DHT22;13860;52.370;6.764;2023-11-21T09:44:54;10.30;91.60
26099;DHT22;13860;52.370;6.764;2023-11-21T09:48:05;10.30;91.60
26099;DHT22;13860;52.370;6.764;2023-11-21T09:51:13;10.30;91.60
26099;DHT22;13860;52.370;6.764;2023-11-21T09:54:20;10.30;91.60
26099;DHT22;13860;52.370;6.764;2023-11-21T09:57:31;10.40;91.80
26099;DHT22;13860;52.370;6.764;2023-11-21T10:00:37;10.40;91.70
26099;DHT22;13860;52.370;6.764;2023-11-21T10:03:45;10.40;91.70
26099;DHT22;13860;52.370;6.764;2023-11-21T10:06:52;10.50;91.80
26099;DHT22;13860;52.370;6.764;2023-11-21T10:10:01;10.50;91.90
26099;DHT22;13860;52.370;6.764;2023-11-21T10:13:11;10.50;91.80
26099;DHT22;13860;52.370;6.764;2023-11-21T10:16:23;10.50;91.80
26099;DHT22;13860;52.370;6.764;2023-11-21T10:19:30;10.50;91.80
26099;DHT22;13860;52.370;6.764;2023-11-21T10:22:39;10.60;92.30
26099;DHT22;13860;52.370;6.764;2023-11-21T10:25:46;10.60;92.50
26099;DHT22;13860;52.370;6.764;2023-11-21T10:29:00;10.70;93.20
26099;DHT22;13860;52.370;6.764;2023-11-21T10:32:06;10.70;92.20
26099;DHT22;13860;52.370;6.764;2023-11-21T10:35:14;10.70;92.00
26099;DHT22;13860;52.370;6.764;2023-11-21T10:38:20;10.90;93.70
26099;DHT22;13860;52.370;6.764;2023-11-21T10:41:28;10.80;91.70
26099;DHT22;13860;52.370;6.764;2023-11-21T10:44:37;10.80;91.70
26099;DHT22;13860;52.370;6.764;2023-11-21T10:47:44;10.80;91.60
26099;DHT22;13860;52.370;6.764;2023-11-21T10:50:51;10.90;91.60
26099;DHT22;13860;52.370;6.764;2023-11-21T10:53:59;10.90;91.60
26099;DHT22;13860;52.370;6.764;2023-11-21T10:57:05;10.90;91.60
26099;DHT22;13860;52.370;6.764;2023-11-21T11:00:16;10.90;91.60
26099;DHT22;13860;52.370;6.764;2023-11-21T11:03:23;10.90;91.60
26099;DHT22;13860;52.370;6.764;2023-11-21T11:06:30;10.90;91.60
26099;DHT22;13860;52.370;6.764;2023-11-21T11:09:39;10.90;91.60
26099;DHT22;13860;52.370;6.764;2023-11-21T11:12:49;10.90;91.50
26099;DHT22;13860;52.370;6.764;2023-11-21T11:15:59;10.90;91.60
26099;DHT22;13860;52.370;6.764;2023-11-21T11:19:11;10.90;91.60
26099;DHT22;13860;52.370;6.764;2023-11-21T11:22:28;10.90;91.50
26099;DHT22;13860;52.370;6.764;2023-11-21T11:26:00;10.90;91.50
26099;DHT22;13860;52.370;6.764;2023-11-21T11:29:15;10.90;91.50
26099;DHT22;13860;52.370;6.764;2023-11-21T11:32:36;10.90;91.50
26099;DHT22;13860;52.370;6.764;2023-11-21T11:35:51;10.80;91.50
26099;DHT22;13860;52.370;6.764;2023-11-21T11:39:00;10.80;91.60
26099;DHT22;13860;52.370;6.764;2023-11-21T11:42:10;10.80;91.50
26099;DHT22;13860;52.370;6.764;2023-11-21T11:45:19;10.80;91.50
26099;DHT22;13860;52.370;6.764;2023-11-21T11:48:27;10.70;91.70
26099;DHT22;13860;52.370;6.764;2023-11-21T11:51:34;10.70;91.70
26099;DHT22;13860;52.370;6.764;2023-11-21T11:54:40;10.60;91.80
26099;DHT22;13860;52.370;6.764;2023-11-21T11:57:49;10.60;91.90
26099;DHT22;13860;52.370;6.764;2023-11-21T12:00:57;10.60;92.00
26099;DHT22;13860;52.370;6.764;2023-11-21T12:04:26;10.60;93.10
26099;DHT22;13860;52.370;6.764;2023-11-21T12:07:44;10.60;93.10
26099;DHT22;13860;52.370;6.764;2023-11-21T12:10:54;10.60;93.20
26099;DHT22;13860;52.370;6.764;2023-11-21T12:14:00;9.90;91.80
26099;DHT22;13860;52.370;6.764;2023-11-21T12:17:10;10.50;93.20
26099;DHT22;13860;52.370;6.764;2023-11-21T12:20:19;10.30;91.70
26099;DHT22;13860;52.370;6.764;2023-11-21T12:23:27;10.40;91.70
26099;DHT22;13860;52.370;6.764;2023-11-21T12:26:33;10.50;91.70
26099;DHT22;13860;52.370;6.764;2023-11-21T12:29:41;10.50;91.70
26099;DHT22;13860;52.370;6.764;2023-11-21T12:32:48;10.50;91.60
26099;DHT22;13860;52.370;6.764;2023-11-21T12:36:02;10.50;91.50
26099;DHT22;13860;52.370;6.764;2023-11-21T12:39:08;10.50;91.50
26099;DHT22;13860;52.370;6.764;2023-11-21T12:42:16;10.50;91.60
26099;DHT22;13860;52.370;6.764;2023-11-21T12:45:24;10.50;91.50
26099;DHT22;13860;52.370;6.764;2023-11-21T12:48:32;10.50;91.70
26099;DHT22;13860;52.370;6.764;2023-11-21T12:51:41;10.50;92.00
26099;DHT22;13860;52.370;6.764;2023-11-21T12:54:48;10.60;92.40
26099;DHT22;13860;52.370;6.764;2023-11-21T12:57:55;10.40;91.30
26099;DHT22;13860;52.370;6.764;2023-11-21T13:01:03;10.30;91.20
26099;DHT22;13860;52.370;6.764;2023-11-21T13:04:14;10.30;91.20
26099;DHT22;13860;52.370;6.764;2023-11-21T13:07:25;10.30;91.20
26099;DHT22;13860;52.370;6.764;2023-11-21T13:10:31;10.20;91.20
26099;DHT22;13860;52.370;6.764;2023-11-21T13:13:41;10.20;91.20
26099;DHT22;13860;52.370;6.764;2023-11-21T13:16:48;10.20;91.10
26099;DHT22;13860;52.370;6.764;2023-11-21T13:19:56;10.20;91.10
26099;DHT22;13860;52.370;6.764;2023-11-21T13:23:07;10.10;91.10
26099;DHT22;13860;52.370;6.764;2023-11-21T13:26:16;10.10;91.10
26099;DHT22;13860;52.370;6.764;2023-11-21T13:29:23;10.10;91.10
26099;DHT22;13860;52.370;6.764;2023-11-21T13:32:30;10.10;91.00
26099;DHT22;13860;52.370;6.764;2023-11-21T13:35:37;10.10;91.00
26099;DHT22;13860;52.370;6.764;2023-11-21T13:38:49;10.10;91.00
26099;DHT22;13860;52.370;6.764;2023-11-21T13:41:55;10.10;91.00
26099;DHT22;13860;52.370;6.764;2023-11-21T13:45:04;10.10;90.90
26099;DHT22;13860;52.370;6.764;2023-11-21T13:48:10;10.10;90.90
26099;DHT22;13860;52.370;6.764;2023-11-21T13:51:18;10.10;90.90
26099;DHT22;13860;52.370;6.764;2023-11-21T13:54:34;10.00;90.80
26099;DHT22;13860;52.370;6.764;2023-11-21T13:57:42;10.00;90.80
26099;DHT22;13860;52.370;6.764;2023-11-21T14:00:52;10.00;90.80
26099;DHT22;13860;52.370;6.764;2023-11-21T14:04:03;10.00;90.90
26099;DHT22;13860;52.370;6.764;2023-11-21T14:07:21;10.00;91.10
26099;DHT22;13860;52.370;6.764;2023-11-21T14:10:43;10.30;92.10
26099;DHT22;13860;52.370;6.764;2023-11-21T14:13:53;10.00;91.70
26099;DHT22;13860;52.370;6.764;2023-11-21T14:17:00;10.10;92.30
26099;DHT22;13860;52.370;6.764;2023-11-21T14:20:10;9.90;90.70
26099;DHT22;13860;52.370;6.764;2023-11-21T14:23:21;9.90;90.70
26099;DHT22;13860;52.370;6.764;2023-11-21T14:26:30;9.80;90.70
26099;DHT22;13860;52.370;6.764;2023-11-21T14:29:37;9.80;90.60
26099;DHT22;13860;52.370;6.764;2023-11-21T14:32:47;9.80;90.60
26099;DHT22;13860;52.370;6.764;2023-11-21T14:35:55;9.80;90.60
26099;DHT22;13860;52.370;6.764;2023-11-21T14:39:01;9.80;90.60
26099;DHT22;13860;52.370;6.764;2023-11-21T14:42:14;9.80;90.60
26099;DHT22;13860;52.370;6.764;2023-11-21T14:45:27;9.80;90.50
26099;DHT22;13860;52.370;6.764;2023-11-21T14:48:34;9.70;90.50
26099;DHT22;13860;52.370;6.764;2023-11-21T14:51:45;9.70;90.60
26099;DHT22;13860;52.370;6.764;2023-11-21T14:55:05;9.70;91.20
26099;DHT22;13860;52.370;6.764;2023-11-21T14:58:26;9.70;90.40
26099;DHT22;13860;52.370;6.764;2023-11-21T15:01:33;9.70;90.40
26099;DHT22;13860;52.370;6.764;2023-11-21T15:04:47;9.70;90.60
26099;DHT22;13860;52.370;6.764;2023-11-21T15:07:57;9.70;91.20
26099;DHT22;13860;52.370;6.764;2023-11-21T15:11:15;9.50;90.00
26099;DHT22;13860;52.370;6.764;2023-11-21T15:14:23;9.60;90.30
26099;DHT22;13860;52.370;6.764;2023-11-21T15:17:34;9.60;90.20
26099;DHT22;13860;52.370;6.764;2023-11-21T15:20:42;9.50;90.20
26099;DHT22;13860;52.370;6.764;2023-11-21T15:23:48;9.50;90.20
26099;DHT22;13860;52.370;6.764;2023-11-21T15:26:56;9.50;90.20
26099;DHT22;13860;52.370;6.764;2023-11-21T15:30:06;9.50;90.20
26099;DHT22;13860;52.370;6.764;2023-11-21T15:33:13;9.50;90.10
26099;DHT22;13860;52.370;6.764;2023-11-21T15:36:19;9.50;90.20
26099;DHT22;13860;52.370;6.764;2023-11-21T15:39:26;9.50;90.20
26099;DHT22;13860;52.370;6.764;2023-11-21T15:42:33;9.50;90.10
26099;DHT22;13860;52.370;6.764;2023-11-21T15:45:44;9.40;90.10
26099;DHT22;13860;52.370;6.764;2023-11-21T15:48:49;9.40;90.10
26099;DHT22;13860;52.370;6.764;2023-11-21T15:51:58;9.40;90.10
26099;DHT22;13860;52.370;6.764;2023-11-21T15:55:06;10.20;90.30
26099;DHT22;13860;52.370;6.764;2023-11-21T15:58:13;9.40;90.10
26099;DHT22;13860;52.370;6.764;2023-11-21T16:01:21;9.30;90.00
26099;DHT22;13860;52.370;6.764;2023-11-21T16:04:30;9.30;90.00
26099;DHT22;13860;52.370;6.764;2023-11-21T16:07:35;9.30;90.00
26099;DHT22;13860;52.370;6.764;2023-11-21T16:10:43;9.30;90.00
26099;DHT22;13860;52.370;6.764;2023-11-21T16:13:49;9.30;90.00
26099;DHT22;13860;52.370;6.764;2023-11-21T16:16:59;9.30;90.00
26099;DHT22;13860;52.370;6.764;2023-11-21T16:20:06;8.80;90.00
26099;DHT22;13860;52.370;6.764;2023-11-21T16:23:17;9.20;90.10
26099;DHT22;13860;52.370;6.764;2023-11-21T16:26:23;9.30;90.10
26099;DHT22;13860;52.370;6.764;2023-11-21T16:29:30;9.20;89.90
26099;DHT22;13860;52.370;6.764;2023-11-21T16:32:38;9.20;90.00
26099;DHT22;13860;52.370;6.764;2023-11-21T16:35:46;9.20;90.00
26099;DHT22;13860;52.370;6.764;2023-11-21T16:38:52;9.20;90.10
26099;DHT22;13860;52.370;6.764;2023-11-21T16:41:59;9.20;90.00
26099;DHT22;13860;52.370;6.764;2023-11-21T16:45:06;9.20;89.90
26099;DHT22;13860;52.370;6.764;2023-11-21T16:48:18;9.20;90.00
26099;DHT22;13860;52.370;6.764;2023-11-21T16:51:23;9.10;89.90
26099;DHT22;13860;52.370;6.764;2023-11-21T16:54:30;9.20;90.00
26099;DHT22;13860;52.370;6.764;2023-11-21T16:57:36;9.20;89.90
26099;DHT22;13860;52.370;6.764;2023-11-21T17:00:44;9.10;89.90
26099;DHT22;13860;52.370;6.764;2023-11-21T17:03:52;9.20;89.90
26099;DHT22;13860;52.370;6.764;2023-11-21T17:07:02;9.10;89.80
26099;DHT22;13860;52.370;6.764;2023-11-21T17:10:09;9.10;89.80
26099;DHT22;13860;52.370;6.764;2023-11-21T17:13:17;9.10;89.80
26099;DHT22;13860;52.370;6.764;2023-11-21T17:16:22;9.10;89.70
26099;DHT22;13860;52.370;6.764;2023-11-21T17:19:33;9.10;89.70
26099;DHT22;13860;52.370;6.764;2023-11-21T17:22:38;9.00;89.60
26099;DHT22;13860;52.370;6.764;2023-11-21T17:25:46;9.00;89.60
26099;DHT22;13860;52.370;6.764;2023-11-21T17:28:52;9.00;89.60
26099;DHT22;13860;52.370;6.764;2023-11-21T17:32:01;9.00;89.60
26099;DHT22;13860;52.370;6.764;2023-11-21T17:35:10;8.90;89.50
26099;DHT22;13860;52.370;6.764;2023-11-21T17:38:18;8.90;89.40
26099;DHT22;13860;52.370;6.764;2023-11-21T17:41:23;8.90;89.40
26099;DHT22;13860;52.370;6.764;2023-11-21T17:44:31;8.90;89.40
26099;DHT22;13860;52.370;6.764;2023-11-21T17:47:37;8.80;89.40
26099;DHT22;13860;52.370;6.764;2023-11-21T17:50:47;8.80;89.40
26099;DHT22;13860;52.370;6.764;2023-11-21T17:53:52;8.80;89.40
26099;DHT22;13860;52.370;6.764;2023-11-21T17:57:05;8.80;89.40
26099;DHT22;13860;52.370;6.764;2023-11-21T18:00:14;8.70;89.40
26099;DHT22;13860;52.370;6.764;2023-11-21T18:03:22;8.70;89.50
26099;DHT22;13860;52.370;6.764;2023-11-21T18:06:30;8.70;89.40
26099;DHT22;13860;52.370;6.764;2023-11-21T18:09:38;8.70;89.50
26099;DHT22;13860;52.370;6.764;2023-11-21T18:12:43;8.60;89.50
26099;DHT22;13860;52.370;6.764;2023-11-21T18:15:51;8.60;89.70
26099;DHT22;13860;52.370;6.764;2023-11-21T18:18:56;8.60;89.60
26099;DHT22;13860;52.370;6.764;2023-11-21T18:22:06;8.60;89.50
26099;DHT22;13860;52.370;6.764;2023-11-21T18:25:12;8.60;89.50
26099;DHT22;13860;52.370;6.764;2023-11-21T18:28:22;8.50;89.40
26099;DHT22;13860;52.370;6.764;2023-11-21T18:31:27;8.40;89.40
26099;DHT22;13860;52.370;6.764;2023-11-21T18:34:35;8.40;89.40
26099;DHT22;13860;52.370;6.764;2023-11-21T18:37:43;8.40;89.40
26099;DHT22;13860;52.370;6.764;2023-11-21T18:40:52;8.30;89.30
26099;DHT22;13860;52.370;6.764;2023-11-21T18:43:57;8.30;89.50
26099;DHT22;13860;52.370;6.764;2023-11-21T18:47:05;8.30;89.50
26099;DHT22;13860;52.370;6.764;2023-11-21T18:50:14;8.20;89.50
26099;DHT22;13860;52.370;6.764;2023-11-21T18:53:28;8.20;89.60
26099;DHT22;13860;52.370;6.764;2023-11-21T18:56:36;8.10;89.90
26099;DHT22;13860;52.370;6.764;2023-11-21T18:59:44;8.10;90.60
26099;DHT22;13860;52.370;6.764;2023-11-21T19:02:50;8.20;91.00
26099;DHT22;13860;52.370;6.764;2023-11-21T19:05:57;8.10;90.70
26099;DHT22;13860;52.370;6.764;2023-11-21T19:09:06;8.10;91.30
26099;DHT22;13860;52.370;6.764;2023-11-21T19:12:16;8.00;91.20
26099;DHT22;13860;52.370;6.764;2023-11-21T19:15:21;8.00;90.70
26099;DHT22;13860;52.370;6.764;2023-11-21T19:18:29;6.70;91.30
26099;DHT22;13860;52.370;6.764;2023-11-21T19:21:34;7.80;89.60
26099;DHT22;13860;52.370;6.764;2023-11-21T19:24:44;7.80;89.80
26099;DHT22;13860;52.370;6.764;2023-11-21T19:27:51;7.70;89.80
26099;DHT22;13860;52.370;6.764;2023-11-21T19:30:58;7.70;90.30
26099;DHT22;13860;52.370;6.764;2023-11-21T19:34:05;7.70;90.30
26099;DHT22;13860;52.370;6.764;2023-11-21T19:37:14;7.70;90.10
26099;DHT22;13860;52.370;6.764;2023-11-21T19:40:22;7.60;89.70
26099;DHT22;13860;52.370;6.764;2023-11-21T19:43:29;7.60;89.90
26099;DHT22;13860;52.370;6.764;2023-11-21T19:46:34;7.60;90.30
26099;DHT22;13860;52.370;6.764;2023-11-21T19:49:42;7.60;90.30
26099;DHT22;13860;52.370;6.764;2023-11-21T19:52:48;7.70;91.20
26099;DHT22;13860;52.370;6.764;2023-11-21T19:55:58;7.50;89.50
26099;DHT22;13860;52.370;6.764;2023-11-21T19:59:03;7.50;89.50
26099;DHT22;13860;52.370;6.764;2023-11-21T20:02:11;7.40;89.50
26099;DHT22;13860;52.370;6.764;2023-11-21T20:05:16;7.40;89.50